sensor_id;sensor_type;location;lat;lon;timestamp;P1;durP1;ratioP1;P2;durP2;ratioP2
12832;SDS011;6483;51.310;4.462;2023-02-07T00:01:19;21.33;;;11.30;;
12832;SDS011;6483;51.310;4.462;2023-02-07T00:03:49;23.07;;;11.30;;
12832;SDS011;6483;51.310;4.462;2023-02-07T00:06:20;28.23;;;12.00;;
12832;SDS011;6483;51.310;4.462;2023-02-07T00:08:48;21.57;;;9.83;;
12832;SDS011;6483;51.310;4.462;2023-02-07T00:11:15;23.53;;;10.43;;
12832;SDS011;6483;51.310;4.462;2023-02-07T00:13:44;21.17;;;10.03;;
12832;SDS011;6483;51.310;4.462;2023-02-07T00:16:11;19.40;;;9.53;;
12832;SDS011;6483;51.310;4.462;2023-02-07T00:18:41;24.40;;;9.93;;
12832;SDS011;6483;51.310;4.462;2023-02-07T00:21:12;21.27;;;9.50;;
12832;SDS011;6483;51.310;4.462;2023-02-07T00:23:43;19.00;;;9.07;;
12832;SDS011;6483;51.310;4.462;2023-02-07T00:26:10;19.97;;;9.27;;
12832;SDS011;6483;51.310;4.462;2023-02-07T00:28:37;19.23;;;8.87;;
12832;SDS011;6483;51.310;4.462;2023-02-07T00:33:40;18.13;;;9.53;;
12832;SDS011;6483;51.310;4.462;2023-02-07T00:36:08;24.40;;;9.43;;
12832;SDS011;6483;51.310;4.462;2023-02-07T00:38:36;18.60;;;9.70;;
12832;SDS011;6483;51.310;4.462;2023-02-07T00:41:04;18.40;;;9.50;;
12832;SDS011;6483;51.310;4.462;2023-02-07T00:43:30;23.93;;;10.80;;
12832;SDS011;6483;51.310;4.462;2023-02-07T00:45:56;23.47;;;10.20;;
12832;SDS011;6483;51.310;4.462;2023-02-07T00:48:23;21.90;;;9.57;;
12832;SDS011;6483;51.310;4.462;2023-02-07T00:50:49;22.33;;;10.63;;
12832;SDS011;6483;51.310;4.462;2023-02-07T00:53:18;25.57;;;11.20;;
12832;SDS011;6483;51.310;4.462;2023-02-07T00:55:43;26.57;;;11.80;;
12832;SDS011;6483;51.310;4.462;2023-02-07T00:58:09;29.80;;;11.37;;
12832;SDS011;6483;51.310;4.462;2023-02-07T01:00:37;24.30;;;11.27;;
12832;SDS011;6483;51.310;4.462;2023-02-07T01:03:03;29.13;;;12.00;;
12832;SDS011;6483;51.310;4.462;2023-02-07T01:05:29;31.17;;;12.83;;
12832;SDS011;6483;51.310;4.462;2023-02-07T01:07:58;25.60;;;12.20;;
12832;SDS011;6483;51.310;4.462;2023-02-07T01:10:28;27.83;;;13.00;;
12832;SDS011;6483;51.310;4.462;2023-02-07T01:12:53;27.50;;;12.23;;
12832;SDS011;6483;51.310;4.462;2023-02-07T01:15:22;21.67;;;11.43;;
12832;SDS011;6483;51.310;4.462;2023-02-07T01:17:48;23.07;;;11.40;;
12832;SDS011;6483;51.310;4.462;2023-02-07T01:20:14;20.80;;;11.20;;
12832;SDS011;6483;51.310;4.462;2023-02-07T01:22:40;23.53;;;11.80;;
12832;SDS011;6483;51.310;4.462;2023-02-07T01:25:09;23.80;;;11.23;;
12832;SDS011;6483;51.310;4.462;2023-02-07T01:27:36;23.10;;;11.10;;
12832;SDS011;6483;51.310;4.462;2023-02-07T01:30:03;28.60;;;11.97;;
12832;SDS011;6483;51.310;4.462;2023-02-07T01:32:32;26.67;;;12.17;;
12832;SDS011;6483;51.310;4.462;2023-02-07T01:35:02;28.97;;;11.57;;
12832;SDS011;6483;51.310;4.462;2023-02-07T01:37:31;36.70;;;13.10;;
12832;SDS011;6483;51.310;4.462;2023-02-07T01:39:58;27.77;;;13.27;;
12832;SDS011;6483;51.310;4.462;2023-02-07T01:42:25;33.47;;;13.37;;
12832;SDS011;6483;51.310;4.462;2023-02-07T01:47:36;38.47;;;13.73;;
12832;SDS011;6483;51.310;4.462;2023-02-07T01:50:03;28.90;;;13.73;;
12832;SDS011;6483;51.310;4.462;2023-02-07T01:52:30;29.03;;;13.80;;
12832;SDS011;6483;51.310;4.462;2023-02-07T01:55:05;28.47;;;13.93;;
12832;SDS011;6483;51.310;4.462;2023-02-07T01:57:33;32.57;;;14.33;;
12832;SDS011;6483;51.310;4.462;2023-02-07T02:00:00;25.73;;;13.67;;
12832;SDS011;6483;51.310;4.462;2023-02-07T02:02:45;24.93;;;12.90;;
12832;SDS011;6483;51.310;4.462;2023-02-07T02:05:12;24.63;;;13.63;;
12832;SDS011;6483;51.310;4.462;2023-02-07T02:07:39;19.70;;;12.90;;
12832;SDS011;6483;51.310;4.462;2023-02-07T02:10:12;31.23;;;13.00;;
12832;SDS011;6483;51.310;4.462;2023-02-07T02:16:10;30.20;;;14.07;;
12832;SDS011;6483;51.310;4.462;2023-02-07T02:27:39;24.83;;;13.90;;
12832;SDS011;6483;51.310;4.462;2023-02-07T02:36:13;27.73;;;13.83;;
12832;SDS011;6483;51.310;4.462;2023-02-07T02:41:28;24.80;;;12.70;;
12832;SDS011;6483;51.310;4.462;2023-02-07T02:44:22;25.37;;;13.10;;
12832;SDS011;6483;51.310;4.462;2023-02-07T02:47:10;33.80;;;15.03;;
12832;SDS011;6483;51.310;4.462;2023-02-07T02:49:40;30.33;;;15.53;;
12832;SDS011;6483;51.310;4.462;2023-02-07T02:52:07;32.30;;;15.87;;
12832;SDS011;6483;51.310;4.462;2023-02-07T02:54:35;29.57;;;14.50;;
12832;SDS011;6483;51.310;4.462;2023-02-07T03:05:11;29.77;;;13.77;;
12832;SDS011;6483;51.310;4.462;2023-02-07T03:10:56;29.60;;;14.20;;
12832;SDS011;6483;51.310;4.462;2023-02-07T03:16:47;28.13;;;14.73;;
12832;SDS011;6483;51.310;4.462;2023-02-07T03:19:18;27.37;;;14.37;;
12832;SDS011;6483;51.310;4.462;2023-02-07T03:21:50;31.97;;;15.10;;
12832;SDS011;6483;51.310;4.462;2023-02-07T03:24:26;32.60;;;15.67;;
12832;SDS011;6483;51.310;4.462;2023-02-07T03:27:00;25.83;;;14.37;;
12832;SDS011;6483;51.310;4.462;2023-02-07T03:29:31;34.30;;;14.80;;
12832;SDS011;6483;51.310;4.462;2023-02-07T03:32:02;28.93;;;13.80;;
12832;SDS011;6483;51.310;4.462;2023-02-07T03:34:49;32.53;;;15.87;;
12832;SDS011;6483;51.310;4.462;2023-02-07T03:37:43;28.90;;;14.20;;
12832;SDS011;6483;51.310;4.462;2023-02-07T03:40:13;31.70;;;15.70;;
12832;SDS011;6483;51.310;4.462;2023-02-07T03:42:52;25.83;;;14.77;;
12832;SDS011;6483;51.310;4.462;2023-02-07T03:45:38;34.27;;;16.33;;
12832;SDS011;6483;51.310;4.462;2023-02-07T03:48:07;35.80;;;15.60;;
12832;SDS011;6483;51.310;4.462;2023-02-07T03:50:33;37.07;;;16.10;;
12832;SDS011;6483;51.310;4.462;2023-02-07T03:53:00;38.67;;;17.70;;
12832;SDS011;6483;51.310;4.462;2023-02-07T03:55:29;37.40;;;18.03;;
12832;SDS011;6483;51.310;4.462;2023-02-07T03:57:56;40.03;;;17.47;;
12832;SDS011;6483;51.310;4.462;2023-02-07T04:00:25;32.63;;;16.77;;
12832;SDS011;6483;51.310;4.462;2023-02-07T04:02:54;40.33;;;17.23;;
12832;SDS011;6483;51.310;4.462;2023-02-07T04:05:20;41.00;;;18.93;;
12832;SDS011;6483;51.310;4.462;2023-02-07T04:07:46;44.40;;;19.00;;
12832;SDS011;6483;51.310;4.462;2023-02-07T04:10:11;43.90;;;18.13;;
12832;SDS011;6483;51.310;4.462;2023-02-07T04:12:37;46.83;;;19.23;;
12832;SDS011;6483;51.310;4.462;2023-02-07T04:15:05;54.83;;;19.10;;
12832;SDS011;6483;51.310;4.462;2023-02-07T04:17:31;59.33;;;21.63;;
12832;SDS011;6483;51.310;4.462;2023-02-07T04:19:57;54.43;;;21.10;;
12832;SDS011;6483;51.310;4.462;2023-02-07T04:22:28;62.07;;;24.87;;
12832;SDS011;6483;51.310;4.462;2023-02-07T04:24:55;41.77;;;21.20;;
12832;SDS011;6483;51.310;4.462;2023-02-07T04:27:21;52.77;;;24.77;;
12832;SDS011;6483;51.310;4.462;2023-02-07T04:29:48;67.43;;;25.13;;
12832;SDS011;6483;51.310;4.462;2023-02-07T04:32:14;73.47;;;26.10;;
12832;SDS011;6483;51.310;4.462;2023-02-07T04:34:40;63.13;;;24.37;;
12832;SDS011;6483;51.310;4.462;2023-02-07T04:37:09;66.60;;;24.83;;
12832;SDS011;6483;51.310;4.462;2023-02-07T04:39:35;55.60;;;24.13;;
12832;SDS011;6483;51.310;4.462;2023-02-07T04:42:01;48.27;;;21.90;;
12832;SDS011;6483;51.310;4.462;2023-02-07T04:44:27;59.97;;;24.30;;
12832;SDS011;6483;51.310;4.462;2023-02-07T04:46:59;60.73;;;24.63;;
12832;SDS011;6483;51.310;4.462;2023-02-07T04:49:26;57.50;;;24.47;;
12832;SDS011;6483;51.310;4.462;2023-02-07T04:51:54;55.70;;;25.57;;
12832;SDS011;6483;51.310;4.462;2023-02-07T04:54:26;56.30;;;26.27;;
12832;SDS011;6483;51.310;4.462;2023-02-07T04:56:51;60.47;;;27.30;;
12832;SDS011;6483;51.310;4.462;2023-02-07T04:59:18;53.70;;;25.93;;
12832;SDS011;6483;51.310;4.462;2023-02-07T05:01:47;59.93;;;26.50;;
12832;SDS011;6483;51.310;4.462;2023-02-07T05:04:13;54.67;;;25.50;;
12832;SDS011;6483;51.310;4.462;2023-02-07T05:06:39;50.67;;;24.77;;
12832;SDS011;6483;51.310;4.462;2023-02-07T05:09:05;56.73;;;24.90;;
12832;SDS011;6483;51.310;4.462;2023-02-07T05:11:35;54.60;;;25.37;;
12832;SDS011;6483;51.310;4.462;2023-02-07T05:14:08;64.30;;;25.77;;
12832;SDS011;6483;51.310;4.462;2023-02-07T05:16:37;46.77;;;24.07;;
12832;SDS011;6483;51.310;4.462;2023-02-07T05:19:03;46.03;;;24.20;;
12832;SDS011;6483;51.310;4.462;2023-02-07T05:21:29;54.63;;;25.40;;
12832;SDS011;6483;51.310;4.462;2023-02-07T05:23:55;48.60;;;24.20;;
12832;SDS011;6483;51.310;4.462;2023-02-07T05:26:20;48.23;;;24.17;;
12832;SDS011;6483;51.310;4.462;2023-02-07T05:28:49;52.03;;;23.00;;
12832;SDS011;6483;51.310;4.462;2023-02-07T05:31:15;48.93;;;24.10;;
12832;SDS011;6483;51.310;4.462;2023-02-07T05:33:41;46.50;;;22.93;;
12832;SDS011;6483;51.310;4.462;2023-02-07T05:36:07;41.63;;;21.97;;
12832;SDS011;6483;51.310;4.462;2023-02-07T05:38:33;46.30;;;23.17;;
12832;SDS011;6483;51.310;4.462;2023-02-07T05:41:00;42.90;;;21.70;;
12832;SDS011;6483;51.310;4.462;2023-02-07T05:43:29;51.60;;;24.13;;
12832;SDS011;6483;51.310;4.462;2023-02-07T05:45:57;44.33;;;21.43;;
12832;SDS011;6483;51.310;4.462;2023-02-07T05:48:23;55.73;;;22.83;;
12832;SDS011;6483;51.310;4.462;2023-02-07T05:50:48;50.50;;;23.07;;
12832;SDS011;6483;51.310;4.462;2023-02-07T05:53:14;48.33;;;23.20;;
12832;SDS011;6483;51.310;4.462;2023-02-07T05:55:40;51.70;;;22.73;;
12832;SDS011;6483;51.310;4.462;2023-02-07T05:58:05;56.93;;;23.93;;
12832;SDS011;6483;51.310;4.462;2023-02-07T06:00:31;47.97;;;23.10;;
12832;SDS011;6483;51.310;4.462;2023-02-07T06:02:57;53.93;;;23.00;;
12832;SDS011;6483;51.310;4.462;2023-02-07T06:05:23;53.70;;;23.07;;
12832;SDS011;6483;51.310;4.462;2023-02-07T06:07:54;56.83;;;23.40;;
12832;SDS011;6483;51.310;4.462;2023-02-07T06:10:20;54.53;;;24.27;;
12832;SDS011;6483;51.310;4.462;2023-02-07T06:12:46;50.63;;;24.90;;
12832;SDS011;6483;51.310;4.462;2023-02-07T06:15:12;48.53;;;23.37;;
12832;SDS011;6483;51.310;4.462;2023-02-07T06:17:37;59.37;;;24.70;;
12832;SDS011;6483;51.310;4.462;2023-02-07T06:20:04;59.70;;;24.97;;
12832;SDS011;6483;51.310;4.462;2023-02-07T06:22:31;56.00;;;24.37;;
12832;SDS011;6483;51.310;4.462;2023-02-07T06:24:56;63.60;;;25.60;;
12832;SDS011;6483;51.310;4.462;2023-02-07T06:27:22;58.87;;;25.13;;
12832;SDS011;6483;51.310;4.462;2023-02-07T06:29:48;52.67;;;25.40;;
12832;SDS011;6483;51.310;4.462;2023-02-07T06:32:15;58.37;;;28.03;;
12832;SDS011;6483;51.310;4.462;2023-02-07T06:34:40;64.83;;;26.10;;
12832;SDS011;6483;51.310;4.462;2023-02-07T06:37:06;54.20;;;24.37;;
12832;SDS011;6483;51.310;4.462;2023-02-07T06:39:32;60.03;;;25.00;;
12832;SDS011;6483;51.310;4.462;2023-02-07T06:42:01;51.90;;;24.00;;
12832;SDS011;6483;51.310;4.462;2023-02-07T06:44:26;66.97;;;28.47;;
12832;SDS011;6483;51.310;4.462;2023-02-07T06:46:53;66.13;;;26.77;;
12832;SDS011;6483;51.310;4.462;2023-02-07T06:49:19;61.77;;;25.77;;
12832;SDS011;6483;51.310;4.462;2023-02-07T06:51:44;62.57;;;26.73;;
12832;SDS011;6483;51.310;4.462;2023-02-07T06:54:10;59.57;;;24.90;;
12832;SDS011;6483;51.310;4.462;2023-02-07T06:56:36;63.13;;;26.77;;
12832;SDS011;6483;51.310;4.462;2023-02-07T06:59:02;65.87;;;28.60;;
12832;SDS011;6483;51.310;4.462;2023-02-07T07:01:28;75.00;;;27.20;;
12832;SDS011;6483;51.310;4.462;2023-02-07T07:03:54;61.07;;;27.13;;
12832;SDS011;6483;51.310;4.462;2023-02-07T07:06:19;70.27;;;27.63;;
12832;SDS011;6483;51.310;4.462;2023-02-07T07:08:45;64.63;;;25.80;;
12832;SDS011;6483;51.310;4.462;2023-02-07T07:11:11;58.53;;;25.47;;
12832;SDS011;6483;51.310;4.462;2023-02-07T07:13:38;69.63;;;28.60;;
12832;SDS011;6483;51.310;4.462;2023-02-07T07:16:04;60.37;;;25.47;;
12832;SDS011;6483;51.310;4.462;2023-02-07T07:18:32;57.73;;;25.13;;
12832;SDS011;6483;51.310;4.462;2023-02-07T07:21:00;65.13;;;24.63;;
12832;SDS011;6483;51.310;4.462;2023-02-07T07:23:26;63.50;;;25.27;;
12832;SDS011;6483;51.310;4.462;2023-02-07T07:25:54;68.43;;;26.43;;
12832;SDS011;6483;51.310;4.462;2023-02-07T07:28:20;58.23;;;25.97;;
12832;SDS011;6483;51.310;4.462;2023-02-07T07:30:46;62.97;;;25.10;;
12832;SDS011;6483;51.310;4.462;2023-02-07T07:33:12;63.47;;;25.37;;
12832;SDS011;6483;51.310;4.462;2023-02-07T07:35:40;68.87;;;27.33;;
12832;SDS011;6483;51.310;4.462;2023-02-07T07:38:08;66.10;;;26.03;;
12832;SDS011;6483;51.310;4.462;2023-02-07T07:40:33;67.17;;;26.83;;
12832;SDS011;6483;51.310;4.462;2023-02-07T07:42:59;77.43;;;29.00;;
12832;SDS011;6483;51.310;4.462;2023-02-07T07:45:25;76.40;;;29.93;;
12832;SDS011;6483;51.310;4.462;2023-02-07T07:47:52;75.90;;;28.83;;
12832;SDS011;6483;51.310;4.462;2023-02-07T07:50:20;72.70;;;28.37;;
12832;SDS011;6483;51.310;4.462;2023-02-07T07:52:46;86.53;;;29.03;;
12832;SDS011;6483;51.310;4.462;2023-02-07T07:55:12;70.77;;;27.83;;
12832;SDS011;6483;51.310;4.462;2023-02-07T07:57:39;65.80;;;27.27;;
12832;SDS011;6483;51.310;4.462;2023-02-07T08:00:05;81.17;;;30.77;;
12832;SDS011;6483;51.310;4.462;2023-02-07T08:02:32;84.50;;;29.67;;
12832;SDS011;6483;51.310;4.462;2023-02-07T08:04:57;79.33;;;27.83;;
12832;SDS011;6483;51.310;4.462;2023-02-07T08:07:23;84.57;;;28.67;;
12832;SDS011;6483;51.310;4.462;2023-02-07T08:09:51;94.93;;;32.20;;
12832;SDS011;6483;51.310;4.462;2023-02-07T08:12:20;90.20;;;32.10;;
12832;SDS011;6483;51.310;4.462;2023-02-07T08:14:46;87.50;;;31.40;;
12832;SDS011;6483;51.310;4.462;2023-02-07T08:17:12;80.10;;;29.37;;
12832;SDS011;6483;51.310;4.462;2023-02-07T08:19:38;91.63;;;33.23;;
12832;SDS011;6483;51.310;4.462;2023-02-07T08:22:04;87.50;;;31.37;;
12832;SDS011;6483;51.310;4.462;2023-02-07T08:24:30;90.50;;;32.53;;
12832;SDS011;6483;51.310;4.462;2023-02-07T08:26:55;96.17;;;32.77;;
12832;SDS011;6483;51.310;4.462;2023-02-07T08:29:22;105.93;;;35.27;;
12832;SDS011;6483;51.310;4.462;2023-02-07T08:31:47;91.27;;;33.27;;
12832;SDS011;6483;51.310;4.462;2023-02-07T08:34:13;103.10;;;35.53;;
12832;SDS011;6483;51.310;4.462;2023-02-07T08:36:45;111.57;;;35.13;;
12832;SDS011;6483;51.310;4.462;2023-02-07T08:39:11;100.67;;;35.47;;
12832;SDS011;6483;51.310;4.462;2023-02-07T08:41:37;99.73;;;34.40;;
12832;SDS011;6483;51.310;4.462;2023-02-07T08:44:03;91.93;;;32.70;;
12832;SDS011;6483;51.310;4.462;2023-02-07T08:46:29;94.43;;;33.90;;
12832;SDS011;6483;51.310;4.462;2023-02-07T08:48:54;110.13;;;37.10;;
12832;SDS011;6483;51.310;4.462;2023-02-07T08:51:21;95.70;;;36.00;;
12832;SDS011;6483;51.310;4.462;2023-02-07T08:53:47;96.57;;;36.20;;
12832;SDS011;6483;51.310;4.462;2023-02-07T08:56:13;92.33;;;35.03;;
12832;SDS011;6483;51.310;4.462;2023-02-07T08:58:38;94.53;;;35.57;;
12832;SDS011;6483;51.310;4.462;2023-02-07T09:01:05;99.27;;;37.07;;
12832;SDS011;6483;51.310;4.462;2023-02-07T09:03:38;107.93;;;37.93;;
12832;SDS011;6483;51.310;4.462;2023-02-07T09:06:04;92.70;;;35.00;;
12832;SDS011;6483;51.310;4.462;2023-02-07T09:08:31;97.73;;;35.83;;
12832;SDS011;6483;51.310;4.462;2023-02-07T09:10:57;96.27;;;36.70;;
12832;SDS011;6483;51.310;4.462;2023-02-07T09:13:22;103.43;;;38.57;;
12832;SDS011;6483;51.310;4.462;2023-02-07T09:15:54;116.63;;;43.63;;
12832;SDS011;6483;51.310;4.462;2023-02-07T09:18:22;126.63;;;44.07;;
12832;SDS011;6483;51.310;4.462;2023-02-07T09:20:48;130.17;;;47.50;;
12832;SDS011;6483;51.310;4.462;2023-02-07T09:23:15;151.43;;;55.60;;
12832;SDS011;6483;51.310;4.462;2023-02-07T09:25:47;150.17;;;58.60;;
12832;SDS011;6483;51.310;4.462;2023-02-07T09:28:15;161.40;;;61.03;;
12832;SDS011;6483;51.310;4.462;2023-02-07T09:30:42;139.83;;;56.50;;
12832;SDS011;6483;51.310;4.462;2023-02-07T09:33:09;117.30;;;50.90;;
12832;SDS011;6483;51.310;4.462;2023-02-07T09:35:36;101.50;;;45.47;;
12832;SDS011;6483;51.310;4.462;2023-02-07T09:38:08;75.73;;;36.50;;
12832;SDS011;6483;51.310;4.462;2023-02-07T09:40:46;58.23;;;29.63;;
12832;SDS011;6483;51.310;4.462;2023-02-07T09:46:02;48.97;;;23.57;;
12832;SDS011;6483;51.310;4.462;2023-02-07T09:48:49;42.40;;;21.73;;
12832;SDS011;6483;51.310;4.462;2023-02-07T09:51:19;40.43;;;19.43;;
12832;SDS011;6483;51.310;4.462;2023-02-07T09:53:54;39.07;;;19.87;;
12832;SDS011;6483;51.310;4.462;2023-02-07T09:56:27;32.23;;;16.90;;
12832;SDS011;6483;51.310;4.462;2023-02-07T10:01:35;35.70;;;17.33;;
12832;SDS011;6483;51.310;4.462;2023-02-07T10:04:07;30.47;;;15.87;;
12832;SDS011;6483;51.310;4.462;2023-02-07T10:06:57;28.30;;;15.37;;
12832;SDS011;6483;51.310;4.462;2023-02-07T10:09:26;27.47;;;14.83;;
12832;SDS011;6483;51.310;4.462;2023-02-07T10:15:02;25.98;;;15.15;;
12832;SDS011;6483;51.310;4.462;2023-02-07T10:17:55;25.45;;;14.50;;
12832;SDS011;6483;51.310;4.462;2023-02-07T10:23:52;24.70;;;13.82;;
12832;SDS011;6483;51.310;4.462;2023-02-07T10:31:54;26.00;;;14.32;;
12832;SDS011;6483;51.310;4.462;2023-02-07T10:34:35;26.92;;;14.65;;
12832;SDS011;6483;51.310;4.462;2023-02-07T10:37:13;25.67;;;13.57;;
12832;SDS011;6483;51.310;4.462;2023-02-07T10:42:44;22.27;;;13.25;;
12832;SDS011;6483;51.310;4.462;2023-02-07T10:45:39;22.33;;;13.05;;
12832;SDS011;6483;51.310;4.462;2023-02-07T10:48:38;23.75;;;12.90;;
12832;SDS011;6483;51.310;4.462;2023-02-07T10:51:40;20.60;;;12.73;;
12832;SDS011;6483;51.310;4.462;2023-02-07T10:54:12;20.10;;;12.23;;
12832;SDS011;6483;51.310;4.462;2023-02-07T10:56:48;22.50;;;11.40;;
12832;SDS011;6483;51.310;4.462;2023-02-07T11:07:59;16.20;;;9.38;;
12832;SDS011;6483;51.310;4.462;2023-02-07T11:10:37;17.35;;;10.07;;
12832;SDS011;6483;51.310;4.462;2023-02-07T11:13:05;19.20;;;12.68;;
12832;SDS011;6483;51.310;4.462;2023-02-07T11:16:18;21.48;;;12.07;;
12832;SDS011;6483;51.310;4.462;2023-02-07T11:21:33;21.02;;;11.48;;
12832;SDS011;6483;51.310;4.462;2023-02-07T11:24:07;18.27;;;10.80;;
12832;SDS011;6483;51.310;4.462;2023-02-07T11:32:25;16.70;;;9.95;;
12832;SDS011;6483;51.310;4.462;2023-02-07T11:34:58;19.50;;;12.13;;
12832;SDS011;6483;51.310;4.462;2023-02-07T11:37:39;20.20;;;12.27;;
12832;SDS011;6483;51.310;4.462;2023-02-07T11:43:14;19.42;;;10.98;;
12832;SDS011;6483;51.310;4.462;2023-02-07T11:46:04;20.20;;;11.13;;
12832;SDS011;6483;51.310;4.462;2023-02-07T11:48:33;18.45;;;11.25;;
12832;SDS011;6483;51.310;4.462;2023-02-07T11:51:05;17.27;;;10.05;;
12832;SDS011;6483;51.310;4.462;2023-02-07T11:56:05;15.98;;;8.88;;
12832;SDS011;6483;51.310;4.462;2023-02-07T11:58:38;15.55;;;9.73;;
12832;SDS011;6483;51.310;4.462;2023-02-07T12:01:13;19.98;;;10.63;;
12832;SDS011;6483;51.310;4.462;2023-02-07T12:06:13;17.02;;;9.88;;
12832;SDS011;6483;51.310;4.462;2023-02-07T12:08:40;18.48;;;10.73;;
12832;SDS011;6483;51.310;4.462;2023-02-07T12:11:12;17.00;;;10.05;;
12832;SDS011;6483;51.310;4.462;2023-02-07T12:16:37;15.82;;;9.70;;
12832;SDS011;6483;51.310;4.462;2023-02-07T12:19:16;14.23;;;8.93;;
12832;SDS011;6483;51.310;4.462;2023-02-07T12:22:00;14.60;;;8.85;;
12832;SDS011;6483;51.310;4.462;2023-02-07T12:24:38;19.25;;;9.75;;
12832;SDS011;6483;51.310;4.462;2023-02-07T12:40:42;12.05;;;8.90;;
12832;SDS011;6483;51.310;4.462;2023-02-07T12:51:11;11.52;;;7.00;;
12832;SDS011;6483;51.310;4.462;2023-02-07T12:53:53;12.57;;;8.18;;
12832;SDS011;6483;51.310;4.462;2023-02-07T12:59:41;11.88;;;7.82;;
12832;SDS011;6483;51.310;4.462;2023-02-07T13:07:57;8.82;;;6.43;;
12832;SDS011;6483;51.310;4.462;2023-02-07T13:13:24;9.68;;;6.75;;
12832;SDS011;6483;51.310;4.462;2023-02-07T13:16:18;10.57;;;7.00;;
12832;SDS011;6483;51.310;4.462;2023-02-07T13:24:24;7.82;;;5.97;;
12832;SDS011;6483;51.310;4.462;2023-02-07T13:27:03;8.23;;;6.85;;
12832;SDS011;6483;51.310;4.462;2023-02-07T13:29:33;10.02;;;6.55;;
12832;SDS011;6483;51.310;4.462;2023-02-07T13:32:00;9.20;;;6.50;;
12832;SDS011;6483;51.310;4.462;2023-02-07T13:34:34;9.15;;;6.80;;
12832;SDS011;6483;51.310;4.462;2023-02-07T13:37:14;7.53;;;6.00;;
12832;SDS011;6483;51.310;4.462;2023-02-07T13:39:58;7.75;;;6.07;;
12832;SDS011;6483;51.310;4.462;2023-02-07T13:48:29;8.95;;;5.93;;
12832;SDS011;6483;51.310;4.462;2023-02-07T13:51:24;6.53;;;5.30;;
12832;SDS011;6483;51.310;4.462;2023-02-07T13:56:55;8.05;;;5.38;;
12832;SDS011;6483;51.310;4.462;2023-02-07T13:59:41;6.88;;;5.50;;
12832;SDS011;6483;51.310;4.462;2023-02-07T14:02:17;5.32;;;4.80;;
12832;SDS011;6483;51.310;4.462;2023-02-07T14:07:37;8.65;;;5.82;;
12832;SDS011;6483;51.310;4.462;2023-02-07T14:10:05;6.65;;;5.68;;
12832;SDS011;6483;51.310;4.462;2023-02-07T14:12:34;5.93;;;5.35;;
12832;SDS011;6483;51.310;4.462;2023-02-07T14:18:00;10.02;;;6.43;;
12832;SDS011;6483;51.310;4.462;2023-02-07T14:20:54;9.93;;;6.95;;
12832;SDS011;6483;51.310;4.462;2023-02-07T14:23:31;11.10;;;7.65;;
12832;SDS011;6483;51.310;4.462;2023-02-07T14:26:57;11.70;;;6.47;;
12832;SDS011;6483;51.310;4.462;2023-02-07T14:31:54;7.10;;;6.40;;
12832;SDS011;6483;51.310;4.462;2023-02-07T14:34:23;7.65;;;6.53;;
12832;SDS011;6483;51.310;4.462;2023-02-07T14:36:54;9.23;;;6.20;;
12832;SDS011;6483;51.310;4.462;2023-02-07T14:39:28;9.98;;;6.70;;
12832;SDS011;6483;51.310;4.462;2023-02-07T14:42:00;14.32;;;7.32;;
12832;SDS011;6483;51.310;4.462;2023-02-07T14:44:56;8.68;;;6.90;;
12832;SDS011;6483;51.310;4.462;2023-02-07T14:47:29;8.30;;;6.43;;
12832;SDS011;6483;51.310;4.462;2023-02-07T14:49:56;6.15;;;5.15;;
12832;SDS011;6483;51.310;4.462;2023-02-07T14:52:28;6.38;;;5.55;;
12832;SDS011;6483;51.310;4.462;2023-02-07T14:54:59;7.20;;;5.13;;
12832;SDS011;6483;51.310;4.462;2023-02-07T14:57:50;5.35;;;4.85;;
12832;SDS011;6483;51.310;4.462;2023-02-07T15:00:32;7.55;;;5.40;;
12832;SDS011;6483;51.310;4.462;2023-02-07T15:03:07;6.20;;;5.10;;
12832;SDS011;6483;51.310;4.462;2023-02-07T15:05:56;6.50;;;5.15;;
12832;SDS011;6483;51.310;4.462;2023-02-07T15:08:27;5.88;;;5.00;;
12832;SDS011;6483;51.310;4.462;2023-02-07T15:13:32;5.18;;;4.20;;
12832;SDS011;6483;51.310;4.462;2023-02-07T15:18:39;5.60;;;4.18;;
12832;SDS011;6483;51.310;4.462;2023-02-07T15:21:36;5.43;;;4.40;;
12832;SDS011;6483;51.310;4.462;2023-02-07T15:24:15;6.10;;;4.90;;
12832;SDS011;6483;51.310;4.462;2023-02-07T15:26:41;5.65;;;5.00;;
12832;SDS011;6483;51.310;4.462;2023-02-07T15:29:22;5.22;;;4.57;;
12832;SDS011;6483;51.310;4.462;2023-02-07T15:31:53;6.47;;;4.68;;
12832;SDS011;6483;51.310;4.462;2023-02-07T15:34:20;5.95;;;5.35;;
12832;SDS011;6483;51.310;4.462;2023-02-07T15:36:57;5.82;;;5.22;;
12832;SDS011;6483;51.310;4.462;2023-02-07T15:39:26;6.68;;;5.18;;
12832;SDS011;6483;51.310;4.462;2023-02-07T15:41:59;7.05;;;5.57;;
12832;SDS011;6483;51.310;4.462;2023-02-07T15:44:26;8.10;;;6.40;;
12832;SDS011;6483;51.310;4.462;2023-02-07T15:46:54;7.95;;;5.85;;
12832;SDS011;6483;51.310;4.462;2023-02-07T15:49:35;11.13;;;6.20;;
12832;SDS011;6483;51.310;4.462;2023-02-07T15:54:55;9.77;;;6.07;;
12832;SDS011;6483;51.310;4.462;2023-02-07T15:57:34;7.93;;;5.85;;
12832;SDS011;6483;51.310;4.462;2023-02-07T16:00:06;7.25;;;5.47;;
12832;SDS011;6483;51.310;4.462;2023-02-07T16:02:54;13.80;;;7.72;;
12832;SDS011;6483;51.310;4.462;2023-02-07T16:05:34;12.48;;;7.85;;
12832;SDS011;6483;51.310;4.462;2023-02-07T16:08:02;14.18;;;7.00;;
12832;SDS011;6483;51.310;4.462;2023-02-07T16:10:54;10.18;;;6.90;;
12832;SDS011;6483;51.310;4.462;2023-02-07T16:22:21;7.22;;;5.60;;
12832;SDS011;6483;51.310;4.462;2023-02-07T16:24:51;10.73;;;6.43;;
12832;SDS011;6483;51.310;4.462;2023-02-07T16:27:20;9.17;;;6.27;;
12832;SDS011;6483;51.310;4.462;2023-02-07T16:29:57;9.60;;;6.37;;
12832;SDS011;6483;51.310;4.462;2023-02-07T16:32:26;8.73;;;6.70;;
12832;SDS011;6483;51.310;4.462;2023-02-07T16:34:55;9.63;;;6.93;;
12832;SDS011;6483;51.310;4.462;2023-02-07T16:37:22;10.87;;;6.93;;
12832;SDS011;6483;51.310;4.462;2023-02-07T16:39:47;11.77;;;7.47;;
12832;SDS011;6483;51.310;4.462;2023-02-07T16:42:16;11.23;;;7.80;;
12832;SDS011;6483;51.310;4.462;2023-02-07T16:44:43;9.47;;;7.27;;
12832;SDS011;6483;51.310;4.462;2023-02-07T16:47:13;10.20;;;7.43;;
12832;SDS011;6483;51.310;4.462;2023-02-07T16:49:42;12.10;;;7.23;;
12832;SDS011;6483;51.310;4.462;2023-02-07T16:52:13;9.47;;;6.87;;
12832;SDS011;6483;51.310;4.462;2023-02-07T16:54:39;10.43;;;6.90;;
12832;SDS011;6483;51.310;4.462;2023-02-07T16:57:10;12.43;;;7.10;;
12832;SDS011;6483;51.310;4.462;2023-02-07T16:59:39;12.23;;;6.90;;
12832;SDS011;6483;51.310;4.462;2023-02-07T17:02:10;9.60;;;6.40;;
12832;SDS011;6483;51.310;4.462;2023-02-07T17:04:38;12.27;;;8.03;;
12832;SDS011;6483;51.310;4.462;2023-02-07T17:07:08;11.23;;;7.63;;
12832;SDS011;6483;51.310;4.462;2023-02-07T17:09:35;8.83;;;6.67;;
12832;SDS011;6483;51.310;4.462;2023-02-07T17:12:07;10.67;;;6.67;;
12832;SDS011;6483;51.310;4.462;2023-02-07T17:14:34;14.63;;;7.43;;
12832;SDS011;6483;51.310;4.462;2023-02-07T17:17:02;10.90;;;7.33;;
12832;SDS011;6483;51.310;4.462;2023-02-07T17:19:27;12.67;;;7.43;;
12832;SDS011;6483;51.310;4.462;2023-02-07T17:21:53;20.07;;;11.50;;
12832;SDS011;6483;51.310;4.462;2023-02-07T17:24:20;15.27;;;9.27;;
12832;SDS011;6483;51.310;4.462;2023-02-07T17:26:49;15.67;;;9.40;;
12832;SDS011;6483;51.310;4.462;2023-02-07T17:29:17;12.93;;;8.20;;
12832;SDS011;6483;51.310;4.462;2023-02-07T17:31:45;14.07;;;8.60;;
12832;SDS011;6483;51.310;4.462;2023-02-07T17:34:11;12.33;;;8.63;;
12832;SDS011;6483;51.310;4.462;2023-02-07T17:36:47;13.53;;;8.47;;
12832;SDS011;6483;51.310;4.462;2023-02-07T17:39:17;14.70;;;8.97;;
12832;SDS011;6483;51.310;4.462;2023-02-07T17:41:43;16.20;;;8.37;;
12832;SDS011;6483;51.310;4.462;2023-02-07T17:44:09;14.87;;;8.30;;